ルクソール の空港の天気 - METARとTAF

ルクソール国際空港 ( HELX / LXR ) - エジプト ルクソール
飛行場実況気象(Metar)
観測時間04/21 16:00 EET (04/21 14:00 UTC)
風向・風速北西 9m/s
視程10km以上
天気現象
なし
気温27℃
湿度23%
気圧1014hPa
METARHELX 211400Z 31018KT CAVOK 27/04 Q1014 NOSIG
過去の天気等 Google飛行場航空写真 Wunderground天気予報

過去48時間のMETAR

飛行場予報(TAF)
発表時間: 4/21 13:00 EET (4/21 11:00 UTC)
予報対象時間: 21日14時 EET ~ 22日20時 EET
風向・風速北北西 4m/s 瞬間風速 9m/s
視程7000m
なし
TAF HELX 211100Z 2112/2218 34008G18KT 7000 NSC